createdAt,value
2023-02-22T00:02:27.121Z,8.03
2023-02-22T00:05:31.542Z,8.07
2023-02-22T00:08:36.652Z,8.03
2023-02-22T00:11:39.097Z,7.96
2023-02-22T00:14:42.245Z,7.97
2023-02-22T00:17:45.138Z,7.80
2023-02-22T00:20:47.849Z,7.98
2023-02-22T00:23:50.370Z,7.83
2023-02-22T00:26:55.622Z,7.85
2023-02-22T00:29:58.847Z,7.66
2023-02-22T00:33:02.159Z,7.74
2023-02-22T00:36:04.898Z,7.54
2023-02-22T00:39:07.627Z,7.30
2023-02-22T00:42:10.242Z,7.35
2023-02-22T00:45:15.972Z,7.51
2023-02-22T00:48:18.471Z,7.53
2023-02-22T00:51:20.819Z,7.48
2023-02-22T00:54:26.507Z,7.54
2023-02-22T00:57:28.729Z,7.54
2023-02-22T01:00:41.640Z,7.54
2023-02-22T01:03:44.056Z,7.58
2023-02-22T01:06:46.819Z,7.70
2023-02-22T01:09:48.991Z,7.68
2023-02-22T01:12:52.173Z,7.80
2023-02-22T01:15:56.722Z,7.77
2023-02-22T01:19:01.409Z,7.68
2023-02-22T01:22:05.892Z,7.69
2023-02-22T01:25:11.618Z,7.67
2023-02-22T01:28:15.169Z,7.87
2023-02-22T01:31:18.122Z,7.85
2023-02-22T01:34:22.179Z,7.92
2023-02-22T01:37:24.772Z,7.91
2023-02-22T01:40:33.145Z,7.70
2023-02-22T01:43:35.763Z,7.88
2023-02-22T01:46:38.041Z,7.77
2023-02-22T01:49:47.055Z,7.78
2023-02-22T01:52:50.644Z,7.65
2023-02-22T01:55:55.677Z,7.66
2023-02-22T01:59:07.259Z,7.62
2023-02-22T02:02:10.236Z,7.69
2023-02-22T02:05:13.882Z,7.53
2023-02-22T02:08:38.136Z,7.48
2023-02-22T02:11:41.955Z,7.29
2023-02-22T02:14:44.741Z,7.44
2023-02-22T02:17:49.174Z,7.49
2023-02-22T02:21:28.873Z,7.45
2023-02-22T02:24:44.727Z,7.44
2023-02-22T02:28:06.005Z,7.62
2023-02-22T02:31:41.940Z,7.50
2023-02-22T02:34:44.477Z,7.62
2023-02-22T02:37:54.841Z,7.57
2023-02-22T02:41:26.872Z,7.61
2023-02-22T02:44:49.807Z,7.58
2023-02-22T02:47:58.802Z,7.66
2023-02-22T02:51:03.703Z,7.74
2023-02-22T02:54:07.707Z,7.65
2023-02-22T02:57:10.064Z,7.65
2023-02-22T03:00:24.105Z,7.68
2023-02-22T03:03:33.440Z,7.77
2023-02-22T03:06:39.018Z,7.71
2023-02-22T03:09:54.795Z,7.65
2023-02-22T03:13:05.822Z,7.74
2023-02-22T03:16:21.408Z,7.76
2023-02-22T03:19:35.844Z,7.68
2023-02-22T03:22:48.173Z,7.65
2023-02-22T03:25:57.899Z,7.77
2023-02-22T03:29:05.198Z,7.80
2023-02-22T03:32:11.948Z,7.90
2023-02-22T03:35:19.382Z,7.74
2023-02-22T03:38:28.917Z,7.69
2023-02-22T03:41:33.656Z,7.70
2023-02-22T03:44:40.204Z,7.69
2023-02-22T03:47:50.328Z,7.69
2023-02-22T03:50:53.612Z,7.76
2023-02-22T03:53:56.561Z,7.70
2023-02-22T03:57:06.785Z,7.76
2023-02-22T04:00:15.001Z,7.73
2023-02-22T04:03:23.146Z,7.69
2023-02-22T04:06:27.237Z,7.72
2023-02-22T04:09:30.270Z,7.73
2023-02-22T04:12:32.948Z,7.69
2023-02-22T04:15:36.951Z,7.72
2023-02-22T04:18:39.525Z,7.82
2023-02-22T04:21:42.141Z,7.87
2023-02-22T04:24:46.197Z,7.90
2023-02-22T04:27:50.891Z,8.03
2023-02-22T04:30:54.518Z,7.98
2023-02-22T04:33:57.445Z,8.05
2023-02-22T04:37:00.198Z,8.15
2023-02-22T04:40:08.151Z,8.15
2023-02-22T04:43:10.930Z,8.41
2023-02-22T04:46:14.954Z,8.28
2023-02-22T04:49:17.398Z,8.27
2023-02-22T04:52:20.878Z,8.29
2023-02-22T04:55:23.670Z,8.40
2023-02-22T04:58:26.280Z,8.59
2023-02-22T05:01:33.638Z,8.62
2023-02-22T05:04:38.737Z,8.72
2023-02-22T05:07:40.950Z,8.81
2023-02-22T05:10:43.518Z,8.92
2023-02-22T05:13:45.877Z,8.93
2023-02-22T05:16:49.896Z,8.90
2023-02-22T05:19:52.099Z,8.99
2023-02-22T05:22:55.772Z,8.96
2023-02-22T05:25:58.343Z,8.98
2023-02-22T05:29:00.845Z,9.16
2023-02-22T05:32:03.182Z,9.20
2023-02-22T05:35:06.208Z,9.22
2023-02-22T05:38:10.988Z,9.31
2023-02-22T05:41:14.135Z,9.27
2023-02-22T05:44:16.461Z,9.39
2023-02-22T05:47:20.144Z,9.40
2023-02-22T05:50:23.188Z,9.50
2023-02-22T05:53:26.573Z,9.53
2023-02-22T05:56:32.685Z,9.41
2023-02-22T05:59:35.337Z,9.23
2023-02-22T06:02:37.581Z,9.14
2023-02-22T06:05:40.350Z,8.92
2023-02-22T06:08:42.685Z,9.03
2023-02-22T06:11:46.438Z,9.09
2023-02-22T06:14:49.904Z,9.14
2023-02-22T06:17:53.690Z,9.36
2023-02-22T06:20:56.258Z,9.43
2023-02-22T06:24:04.516Z,9.59
2023-02-22T06:27:06.837Z,9.78
2023-02-22T06:30:13.349Z,9.97
2023-02-22T06:33:15.731Z,10.44
2023-02-22T06:36:18.667Z,10.81
2023-02-22T06:39:20.939Z,11.17
2023-02-22T06:42:24.027Z,11.62
2023-02-22T06:45:26.720Z,11.86
2023-02-22T06:48:29.392Z,12.13
2023-02-22T06:51:36.988Z,12.08
2023-02-22T06:54:40.012Z,12.15
2023-02-22T06:57:42.259Z,12.33
2023-02-22T07:00:44.819Z,12.62
2023-02-22T07:03:49.377Z,13.20
2023-02-22T07:06:52.007Z,13.51
2023-02-22T07:09:54.521Z,14.18
2023-02-22T07:12:57.251Z,14.86
2023-02-22T07:16:00.005Z,14.91
2023-02-22T07:19:02.727Z,14.53
2023-02-22T07:22:06.214Z,14.05
2023-02-22T07:25:10.167Z,13.24
2023-02-22T07:28:13.417Z,12.56
2023-02-22T07:31:16.925Z,12.33
2023-02-22T07:34:19.423Z,12.26
2023-02-22T07:37:22.217Z,12.16
2023-02-22T07:40:26.344Z,12.08
2023-02-22T07:43:31.118Z,11.93
2023-02-22T07:46:34.047Z,11.65
2023-02-22T07:49:36.999Z,11.78
2023-02-22T07:52:39.267Z,11.67
2023-02-22T07:55:42.069Z,11.87
2023-02-22T07:58:44.332Z,12.23
2023-02-22T08:01:49.926Z,12.16
2023-02-22T08:04:52.444Z,12.21
2023-02-22T08:07:54.636Z,12.24
2023-02-22T08:10:59.620Z,12.24
2023-02-22T08:14:01.850Z,12.36
2023-02-22T08:17:04.334Z,12.47
2023-02-22T08:20:07.185Z,12.35
2023-02-22T08:23:11.724Z,12.58
2023-02-22T08:26:15.700Z,12.50
2023-02-22T08:29:18.270Z,12.72
2023-02-22T08:32:20.824Z,13.06
2023-02-22T08:35:24.440Z,13.30
2023-02-22T08:38:29.180Z,13.35
2023-02-22T08:41:31.820Z,13.60
2023-02-22T08:44:34.149Z,13.94
2023-02-22T08:47:36.881Z,14.25
2023-02-22T08:50:41.464Z,14.39
2023-02-22T08:53:44.339Z,14.53
2023-02-22T08:56:46.478Z,14.43
2023-02-22T08:59:48.983Z,14.82
2023-02-22T09:02:52.410Z,15.28
2023-02-22T09:05:55.231Z,15.87
2023-02-22T09:08:57.489Z,15.72
2023-02-22T09:11:59.983Z,15.41
2023-02-22T09:15:02.284Z,15.59
2023-02-22T09:18:08.408Z,15.24
2023-02-22T09:21:11.761Z,14.74
2023-02-22T09:24:14.323Z,14.35
2023-02-22T09:27:19.319Z,14.44
2023-02-22T09:30:27.716Z,14.36
2023-02-22T09:33:29.982Z,14.28
2023-02-22T09:36:33.154Z,13.84
2023-02-22T09:39:37.601Z,13.66
2023-02-22T09:42:51.448Z,13.67
2023-02-22T09:46:13.770Z,13.53
2023-02-22T09:49:34.350Z,13.31
2023-02-22T09:52:50.164Z,13.43
2023-02-22T09:55:57.354Z,13.18
2023-02-22T09:59:04.041Z,13.18
2023-02-22T10:02:26.627Z,12.98
2023-02-22T10:05:34.242Z,13.00
2023-02-22T10:08:38.772Z,12.85
2023-02-22T10:11:55.201Z,13.04
2023-02-22T10:15:17.981Z,13.05
2023-02-22T10:19:08.019Z,13.32
2023-02-22T10:22:28.396Z,13.82
2023-02-22T10:25:36.585Z,13.73
2023-02-22T10:28:43.920Z,13.89
2023-02-22T10:31:52.344Z,13.70
2023-02-22T10:34:56.140Z,13.64
2023-02-22T10:38:13.246Z,13.74
2023-02-22T10:41:26.324Z,13.66
2023-02-22T10:44:29.016Z,13.33
2023-02-22T10:47:31.829Z,13.18
2023-02-22T10:50:37.189Z,13.33
2023-02-22T10:53:39.877Z,13.40
2023-02-22T10:56:51.012Z,13.22
2023-02-22T10:59:57.114Z,13.29
2023-02-22T11:03:02.485Z,13.14
2023-02-22T11:06:22.427Z,12.92
2023-02-22T11:09:25.464Z,13.15
2023-02-22T11:12:34.316Z,13.35
2023-02-22T11:15:37.168Z,13.39
2023-02-22T11:18:39.479Z,13.53
2023-02-22T11:21:42.910Z,13.67
2023-02-22T11:24:50.582Z,13.53
2023-02-22T11:27:54.497Z,13.82
2023-02-22T11:30:58.971Z,14.11
2023-02-22T11:34:03.857Z,14.34
2023-02-22T11:37:36.659Z,14.14
2023-02-22T11:40:40.207Z,13.70
2023-02-22T11:43:45.100Z,13.78
2023-02-22T11:46:48.770Z,13.86
2023-02-22T11:49:53.405Z,13.79
2023-02-22T11:53:19.015Z,13.70
2023-02-22T11:56:38.341Z,13.67
2023-02-22T11:59:46.975Z,13.78
2023-02-22T12:03:06.612Z,13.76
2023-02-22T12:06:19.957Z,13.77
2023-02-22T12:09:57.614Z,13.68
2023-02-22T12:13:17.307Z,13.51
2023-02-22T12:16:46.322Z,13.79
2023-02-22T12:20:06.974Z,13.92
2023-02-22T12:23:12.800Z,13.94
2023-02-22T12:26:26.443Z,13.76
2023-02-22T12:29:39.827Z,13.80
2023-02-22T12:32:50.830Z,13.83
2023-02-22T12:35:56.519Z,13.79
2023-02-22T12:39:07.465Z,13.55
2023-02-22T12:42:21.371Z,13.47
2023-02-22T12:45:39.953Z,13.43
2023-02-22T12:49:00.859Z,13.42
2023-02-22T12:52:20.869Z,13.35
2023-02-22T12:55:33.404Z,13.24
2023-02-22T12:58:46.402Z,13.23
2023-02-22T13:01:57.075Z,13.28
2023-02-22T13:05:01.619Z,13.18
2023-02-22T13:08:12.198Z,13.33
2023-02-22T13:11:22.420Z,13.32
2023-02-22T13:14:43.606Z,13.44
2023-02-22T13:18:04.691Z,13.37
2023-02-22T13:21:17.030Z,13.41
2023-02-22T13:24:53.211Z,13.35
2023-02-22T13:28:29.132Z,13.42
2023-02-22T13:31:51.009Z,13.47
2023-02-22T13:35:14.630Z,13.36
2023-02-22T13:38:48.329Z,13.27
2023-02-22T13:41:52.121Z,13.16
2023-02-22T13:45:27.766Z,13.40
2023-02-22T13:48:48.854Z,13.31
2023-02-22T13:52:08.394Z,13.36
2023-02-22T13:55:23.593Z,13.35
2023-02-22T13:58:27.061Z,13.30
2023-02-22T14:01:46.136Z,13.13
2023-02-22T14:04:48.769Z,13.17
2023-02-22T14:07:51.105Z,13.19
2023-02-22T14:11:27.061Z,13.12
2023-02-22T14:14:31.702Z,13.16
2023-02-22T14:17:34.328Z,13.04
2023-02-22T14:20:38.499Z,12.98
2023-02-22T14:23:56.284Z,13.14
2023-02-22T14:27:03.647Z,13.04
2023-02-22T14:30:07.151Z,13.01
2023-02-22T14:33:47.340Z,12.91
2023-02-22T14:37:07.698Z,13.05
2023-02-22T14:40:28.121Z,12.92
2023-02-22T14:43:33.073Z,13.00
2023-02-22T14:46:40.576Z,13.06
2023-02-22T14:49:52.232Z,13.11
2023-02-22T14:53:04.344Z,13.19
2023-02-22T14:56:21.075Z,13.14
2023-02-22T14:59:28.827Z,13.08
2023-02-22T15:02:38.981Z,12.99
2023-02-22T15:05:41.249Z,12.97
2023-02-22T15:08:49.127Z,13.09
2023-02-22T15:12:03.553Z,13.14
2023-02-22T15:15:33.478Z,13.08
2023-02-22T15:18:43.126Z,12.95
2023-02-22T15:21:48.845Z,12.82
2023-02-22T15:25:03.577Z,12.76
2023-02-22T15:28:09.403Z,12.73
2023-02-22T15:31:33.738Z,12.76
2023-02-22T15:34:36.329Z,12.66
2023-02-22T15:37:38.748Z,12.63
2023-02-22T15:40:43.417Z,12.63
2023-02-22T15:43:46.031Z,12.50
2023-02-22T15:46:50.873Z,12.46
2023-02-22T15:50:23.318Z,12.40
2023-02-22T15:53:39.996Z,12.30
2023-02-22T15:56:56.468Z,12.28
2023-02-22T15:59:59.230Z,12.23
2023-02-22T16:03:26.833Z,12.16
2023-02-22T16:06:35.868Z,12.09
2023-02-22T16:09:38.450Z,12.02
2023-02-22T16:12:42.427Z,11.94
2023-02-22T16:15:55.995Z,11.93
2023-02-22T16:19:24.250Z,11.93
2023-02-22T16:22:34.519Z,12.02
2023-02-22T16:25:39.433Z,11.90
2023-02-22T16:28:52.045Z,11.79
2023-02-22T16:31:54.695Z,11.86
2023-02-22T16:34:58.129Z,11.81
2023-02-22T16:38:09.379Z,11.71
2023-02-22T16:41:11.928Z,11.55
2023-02-22T16:44:14.773Z,11.49
2023-02-22T16:47:21.769Z,11.45
2023-02-22T16:50:24.450Z,11.39
2023-02-22T16:53:30.617Z,11.43
2023-02-22T16:56:35.315Z,11.41
2023-02-22T16:59:39.544Z,11.32
2023-02-22T17:02:42.232Z,11.26
2023-02-22T17:05:44.993Z,11.15
2023-02-22T17:08:50.824Z,11.07
2023-02-22T17:11:53.734Z,11.02
2023-02-22T17:14:58.641Z,10.99
2023-02-22T17:18:06.705Z,11.00
2023-02-22T17:21:13.533Z,10.95
2023-02-22T17:24:29.215Z,10.97
2023-02-22T17:27:31.916Z,10.91
2023-02-22T17:30:36.692Z,10.82
2023-02-22T17:33:40.617Z,10.77
2023-02-22T17:36:43.148Z,10.71
2023-02-22T17:39:45.765Z,10.63
2023-02-22T17:42:50.266Z,10.66
2023-02-22T17:45:53.839Z,10.60
2023-02-22T17:48:56.184Z,10.51
2023-02-22T17:52:02.885Z,10.47
2023-02-22T17:55:09.280Z,10.49
2023-02-22T17:58:14.673Z,10.44
2023-02-22T18:01:29.533Z,10.39
2023-02-22T18:04:34.841Z,10.37
2023-02-22T18:07:38.170Z,10.34
2023-02-22T18:10:45.729Z,10.34
2023-02-22T18:13:48.370Z,10.31
2023-02-22T18:16:50.991Z,10.27
2023-02-22T18:19:55.805Z,10.38
2023-02-22T18:23:00.018Z,10.19
2023-02-22T18:26:11.152Z,10.13
2023-02-22T18:29:14.081Z,10.04
2023-02-22T18:32:16.282Z,10.05
2023-02-22T18:35:19.053Z,10.02
2023-02-22T18:38:26.523Z,10.01
2023-02-22T18:41:29.225Z,10.05
2023-02-22T18:44:32.350Z,10.02
2023-02-22T18:47:44.041Z,9.99
2023-02-22T18:50:46.297Z,10.02
2023-02-22T18:53:52.547Z,10.07
2023-02-22T18:56:55.238Z,10.24
2023-02-22T18:59:58.812Z,10.27
2023-02-22T19:03:01.229Z,10.30
2023-02-22T19:06:08.609Z,10.34
2023-02-22T19:09:11.096Z,10.19
2023-02-22T19:12:16.917Z,10.11
2023-02-22T19:15:19.232Z,9.99
2023-02-22T19:18:23.622Z,10.05
2023-02-22T19:21:28.157Z,10.16
2023-02-22T19:24:36.548Z,10.10
2023-02-22T19:27:41.651Z,10.19
2023-02-22T19:30:44.413Z,10.08
2023-02-22T19:33:51.246Z,10.15
2023-02-22T19:36:53.900Z,10.02
2023-02-22T19:39:57.434Z,10.11
2023-02-22T19:43:00.045Z,10.20
2023-02-22T19:46:07.639Z,10.19
2023-02-22T19:49:10.520Z,10.24
2023-02-22T19:52:14.768Z,10.25
2023-02-22T19:55:17.326Z,10.27
2023-02-22T19:58:21.633Z,10.27
2023-02-22T20:01:30.094Z,10.22
2023-02-22T20:04:32.640Z,10.00
2023-02-22T20:07:34.919Z,9.95
2023-02-22T20:10:37.864Z,9.96
2023-02-22T20:13:42.019Z,9.88
2023-02-22T20:16:47.323Z,9.76
2023-02-22T20:19:50.444Z,9.63
2023-02-22T20:22:53.856Z,9.77
2023-02-22T20:25:56.885Z,9.78
2023-02-22T20:29:04.702Z,9.73
2023-02-22T20:32:11.597Z,9.76
2023-02-22T20:35:16.445Z,9.92
2023-02-22T20:38:19.273Z,10.00
2023-02-22T20:41:25.909Z,9.82
2023-02-22T20:44:30.644Z,9.73
2023-02-22T20:47:33.379Z,9.90
2023-02-22T20:50:35.800Z,9.84
2023-02-22T20:53:44.267Z,9.77
2023-02-22T20:56:47.919Z,9.78
2023-02-22T20:59:51.929Z,9.66
2023-02-22T21:02:55.605Z,9.67
2023-02-22T21:05:58.393Z,9.68
2023-02-22T21:09:02.733Z,9.73
2023-02-22T21:12:14.043Z,9.60
2023-02-22T21:15:16.333Z,9.52
2023-02-22T21:18:20.500Z,9.85
2023-02-22T21:21:23.554Z,9.72
2023-02-22T21:24:29.616Z,9.79
2023-02-22T21:27:31.791Z,9.83
2023-02-22T21:30:36.603Z,9.79
2023-02-22T21:33:43.360Z,9.60
2023-02-22T21:36:47.220Z,9.54
2023-02-22T21:39:49.515Z,9.72
2023-02-22T21:42:54.172Z,9.75
2023-02-22T21:45:58.492Z,9.78
2023-02-22T21:49:02.459Z,9.54
2023-02-22T21:52:07.604Z,9.51
2023-02-22T21:55:10.800Z,9.48
2023-02-22T21:58:12.968Z,9.51
2023-02-22T22:01:17.590Z,9.56
2023-02-22T22:04:32.606Z,9.61
2023-02-22T22:07:36.114Z,9.60
2023-02-22T22:10:41.633Z,9.57
2023-02-22T22:13:44.349Z,9.68
2023-02-22T22:16:49.285Z,9.54
2023-02-22T22:19:51.929Z,9.56
2023-02-22T22:22:57.309Z,9.56
2023-02-22T22:26:06.363Z,9.48
2023-02-22T22:29:11.371Z,9.39
2023-02-22T22:32:16.174Z,9.53
2023-02-22T22:35:18.917Z,9.51
2023-02-22T22:38:21.596Z,9.39
2023-02-22T22:41:27.931Z,9.29
2023-02-22T22:44:41.517Z,9.29
2023-02-22T22:47:48.199Z,9.31
2023-02-22T22:51:03.362Z,9.25
2023-02-22T22:54:06.233Z,9.23
2023-02-22T22:57:08.689Z,9.32
2023-02-22T23:00:37.068Z,9.29
2023-02-22T23:03:39.528Z,9.35
2023-02-22T23:06:48.092Z,9.23
2023-02-22T23:09:52.610Z,9.15
2023-02-22T23:12:57.229Z,9.11
2023-02-22T23:15:59.702Z,9.05
2023-02-22T23:19:02.153Z,8.96
2023-02-22T23:22:08.274Z,8.98
2023-02-22T23:25:10.786Z,9.01
2023-02-22T23:28:15.059Z,9.04
2023-02-22T23:31:18.101Z,9.04
2023-02-22T23:34:23.777Z,9.08
2023-02-22T23:37:27.361Z,9.13
2023-02-22T23:40:29.640Z,9.15
2023-02-22T23:43:34.138Z,9.12
2023-02-22T23:46:36.525Z,9.12
2023-02-22T23:49:45.062Z,8.94
2023-02-22T23:52:47.341Z,8.83
2023-02-22T23:55:50.262Z,8.87
2023-02-22T23:58:57.161Z,8.86
